Fremont, Nebraska
Current Conditions -  °F | °C
As of 4:35 AM on Friday 19 Dec 2014 (Local Time) from KFET Reporting Station
Haze Haze  
Wind Chill: 27°   Ceiling: 1900
Heat Index: 32°   Visibility: 5mi
Dew Point: 30°   Wind: 5mph
Humidity: 94%   Direction: 170°S
Pressure: 30.2"   Gusts: NA
Location:  41.43°N, 96.5°W
Report Text: KFET 191035Z AUTO 17004KT 5SM BR BKN019 OVC026 00/M01 A3020 RMK AO2 T00001009
Loading
Personal Weather Stations






























Interactive Weather Map New forecast layout! Learn more

10-Day Weather Forecast

Advertisements
Track Severe Weather on mobile